Ellerslie, Maryland
Current Conditions -  °F | °C
As of 11:19 AM on Monday 26 Jan 2015 (Local Time) from KCBE Reporting Station
Overcast Overcast  
Wind Chill: 32°   Ceiling: 1600
Heat Index: 32°   Visibility: 5mi
Dew Point: 28°   Wind: 0mph
Humidity: 87%   Direction: NA
Pressure: 29.82"   Gusts: NA
Location:  39.72°N, 78.77°W
Report Text: KCBE 261619Z AUTO 00000KT 5SM SCT010 OVC016 00/M02 A2982 RMK AO1
Loading
Personal Weather Stations






























Interactive Weather Map New forecast layout! Learn more

10-Day Weather Forecast

Advertisements
Track Severe Weather on mobile